createdAt,value
2018-12-14T00:00:14.069Z,3.20
2018-12-14T00:02:44.675Z,3.20
2018-12-14T00:05:15.292Z,3.20
2018-12-14T00:07:45.975Z,3.20
2018-12-14T00:10:14.822Z,3.20
2018-12-14T00:12:43.514Z,3.30
2018-12-14T00:15:12.319Z,3.20
2018-12-14T00:17:42.113Z,3.30
2018-12-14T00:20:10.912Z,3.30
2018-12-14T00:22:39.968Z,3.40
2018-12-14T00:25:08.775Z,3.30
2018-12-14T00:27:37.707Z,3.40
2018-12-14T00:30:08.075Z,3.30
2018-12-14T00:32:36.751Z,3.30
2018-12-14T00:35:05.846Z,3.40
2018-12-14T00:37:34.556Z,3.40
2018-12-14T00:40:03.453Z,3.40
2018-12-14T00:42:32.234Z,3.40
2018-12-14T00:45:01.173Z,3.40
2018-12-14T00:47:29.960Z,3.40
2018-12-14T00:49:58.666Z,3.40
2018-12-14T00:52:27.476Z,3.50
2018-12-14T00:54:56.291Z,3.40
2018-12-14T00:57:25.120Z,3.40
2018-12-14T00:59:53.838Z,3.40
2018-12-14T01:02:28.687Z,3.40
2018-12-14T01:04:57.892Z,3.50
2018-12-14T01:07:27.207Z,3.40
2018-12-14T01:09:55.980Z,3.40
2018-12-14T01:12:24.715Z,3.40
2018-12-14T01:14:53.536Z,3.40
2018-12-14T01:17:22.261Z,3.30
2018-12-14T01:19:51.037Z,3.30
2018-12-14T01:22:19.971Z,3.30
2018-12-14T01:24:48.713Z,3.30
2018-12-14T01:27:17.465Z,3.20
2018-12-14T01:29:46.205Z,3.30
2018-12-14T01:32:14.893Z,3.30
2018-12-14T01:34:43.708Z,3.30
2018-12-14T01:37:12.527Z,3.30
2018-12-14T01:39:41.190Z,3.30
2018-12-14T01:42:10.394Z,3.40
2018-12-14T01:44:39.205Z,3.40
2018-12-14T01:47:08.220Z,3.40
2018-12-14T01:49:36.977Z,3.40
2018-12-14T01:52:05.790Z,3.40
2018-12-14T01:54:34.464Z,3.40
2018-12-14T01:57:03.448Z,3.40
2018-12-14T01:59:32.192Z,3.40
2018-12-14T02:02:01.005Z,3.40
2018-12-14T02:04:31.071Z,3.40
2018-12-14T02:06:59.887Z,3.40
2018-12-14T02:09:28.880Z,3.40
2018-12-14T02:11:57.620Z,3.40
2018-12-14T02:14:26.316Z,3.40
2018-12-14T02:16:55.063Z,3.40
2018-12-14T02:19:23.750Z,3.40
2018-12-14T02:21:52.516Z,3.30
2018-12-14T02:24:21.530Z,3.30
2018-12-14T02:26:50.155Z,3.40
2018-12-14T02:29:18.915Z,3.40
2018-12-14T02:31:47.603Z,3.40
2018-12-14T02:34:22.809Z,3.40
2018-12-14T02:36:51.645Z,3.40
2018-12-14T02:39:20.383Z,3.30
2018-12-14T02:41:49.201Z,3.30
2018-12-14T02:44:18.076Z,3.30
2018-12-14T02:46:46.819Z,3.30
2018-12-14T02:49:22.393Z,3.20
2018-12-14T02:51:51.254Z,3.20
2018-12-14T02:54:19.995Z,3.10
2018-12-14T02:56:48.759Z,3.10
2018-12-14T02:59:17.441Z,3.20
2018-12-14T03:01:46.176Z,3.20
2018-12-14T03:04:14.936Z,3.20
2018-12-14T03:06:43.696Z,3.10
2018-12-14T03:09:12.504Z,3.10
2018-12-14T03:11:41.183Z,3.10
2018-12-14T03:14:10.816Z,3.10
2018-12-14T03:16:39.502Z,3.20
2018-12-14T03:19:08.348Z,3.10
2018-12-14T03:21:37.019Z,3.10
2018-12-14T03:24:05.912Z,3.10
2018-12-14T03:26:34.923Z,3.10
2018-12-14T03:29:03.744Z,3.10
2018-12-14T03:31:32.460Z,3.00
2018-12-14T03:34:01.180Z,3.10
2018-12-14T03:36:29.956Z,3.10
2018-12-14T03:38:58.720Z,3.10
2018-12-14T03:41:27.575Z,3.10
2018-12-14T03:43:56.264Z,3.10
2018-12-14T03:46:25.023Z,3.10
2018-12-14T03:48:53.775Z,3.10
2018-12-14T03:51:26.841Z,3.10
2018-12-14T03:53:55.609Z,3.20
2018-12-14T03:56:24.608Z,3.20
2018-12-14T03:58:53.415Z,3.20
2018-12-14T04:01:22.156Z,3.20
2018-12-14T04:03:50.833Z,3.10
2018-12-14T04:06:19.593Z,3.10
2018-12-14T04:08:50.206Z,3.10
2018-12-14T04:11:19.017Z,3.10
2018-12-14T04:13:47.694Z,3.20
2018-12-14T04:16:16.499Z,3.20
2018-12-14T04:18:45.249Z,3.20
2018-12-14T04:21:16.568Z,3.20
2018-12-14T04:23:45.337Z,3.20
2018-12-14T04:26:14.026Z,3.20
2018-12-14T04:28:42.771Z,3.20
2018-12-14T04:31:11.455Z,3.10
2018-12-14T04:33:40.159Z,3.00
2018-12-14T04:36:08.888Z,2.90
2018-12-14T04:38:40.163Z,2.80
2018-12-14T04:41:08.898Z,2.80
2018-12-14T04:43:37.680Z,2.90
2018-12-14T04:46:06.357Z,2.90
2018-12-14T04:48:35.108Z,2.90
2018-12-14T04:51:03.972Z,2.90
2018-12-14T04:53:32.759Z,2.90
2018-12-14T04:56:01.471Z,2.90
2018-12-14T04:58:30.293Z,2.90
2018-12-14T05:00:59.149Z,2.90
2018-12-14T05:03:27.908Z,3.00
2018-12-14T05:05:56.620Z,3.00
2018-12-14T05:08:25.463Z,3.00
2018-12-14T05:10:54.138Z,3.00
2018-12-14T05:13:23.029Z,3.00
2018-12-14T05:15:51.713Z,3.00
2018-12-14T05:18:20.375Z,3.10
2018-12-14T05:20:49.062Z,3.10
2018-12-14T05:23:17.728Z,3.00
2018-12-14T05:25:46.497Z,3.10
2018-12-14T05:28:15.243Z,3.10
2018-12-14T05:30:43.909Z,3.10
2018-12-14T05:33:12.583Z,3.10
2018-12-14T05:35:41.802Z,3.00
2018-12-14T05:38:10.546Z,3.00
2018-12-14T05:40:39.242Z,3.00
2018-12-14T05:43:07.968Z,3.10
2018-12-14T05:45:36.661Z,3.10
2018-12-14T05:48:05.357Z,3.10
2018-12-14T05:50:34.143Z,3.10
2018-12-14T05:53:02.820Z,3.10
2018-12-14T05:55:31.507Z,3.10
2018-12-14T05:58:00.194Z,3.10
2018-12-14T06:00:28.880Z,3.10
2018-12-14T06:02:57.639Z,3.10
2018-12-14T06:05:26.320Z,3.10
2018-12-14T06:07:55.001Z,3.10
2018-12-14T06:10:24.775Z,3.10
2018-12-14T06:12:53.483Z,3.10
2018-12-14T06:15:22.341Z,3.10
2018-12-14T06:17:51.079Z,3.00
2018-12-14T06:20:19.760Z,2.90
2018-12-14T06:22:48.504Z,2.90
2018-12-14T06:25:17.183Z,2.90
2018-12-14T06:27:46.371Z,2.90
2018-12-14T06:30:15.187Z,3.00
2018-12-14T06:32:43.949Z,2.90
2018-12-14T06:35:12.805Z,2.90
2018-12-14T06:37:42.065Z,2.80
2018-12-14T06:40:10.957Z,2.70
2018-12-14T06:42:39.699Z,2.70
2018-12-14T06:45:09.020Z,2.70
2018-12-14T06:47:37.836Z,2.70
2018-12-14T06:50:07.632Z,2.70
2018-12-14T06:52:36.359Z,2.70
2018-12-14T06:55:05.465Z,2.60
2018-12-14T06:57:34.186Z,2.60
2018-12-14T07:00:03.240Z,2.70
2018-12-14T07:02:32.072Z,2.70
2018-12-14T07:05:00.816Z,2.70
2018-12-14T07:07:29.522Z,2.70
2018-12-14T07:09:58.268Z,2.70
2018-12-14T07:12:26.995Z,2.80
2018-12-14T07:14:55.728Z,2.80
2018-12-14T07:17:24.489Z,2.80
2018-12-14T07:19:54.162Z,2.90
2018-12-14T07:22:22.863Z,2.90
2018-12-14T07:24:51.600Z,2.90
2018-12-14T07:27:20.443Z,2.90
2018-12-14T07:29:49.262Z,2.90
2018-12-14T07:32:18.089Z,2.90
2018-12-14T07:34:46.944Z,3.00
2018-12-14T07:37:15.639Z,3.00
2018-12-14T07:39:44.398Z,3.00
2018-12-14T07:47:11.988Z,3.00
2018-12-14T07:49:40.783Z,2.90
2018-12-14T07:52:09.560Z,2.90
2018-12-14T07:54:38.303Z,2.80
2018-12-14T07:57:07.043Z,2.80
2018-12-14T07:59:35.836Z,2.80
2018-12-14T08:02:04.604Z,2.90
2018-12-14T08:04:33.603Z,3.00
2018-12-14T08:07:02.651Z,3.00
2018-12-14T08:09:31.532Z,3.00
2018-12-14T08:12:00.220Z,3.00
2018-12-14T08:14:29.048Z,3.00
2018-12-14T08:16:57.783Z,3.00
2018-12-14T08:19:26.500Z,3.00
2018-12-14T08:21:55.285Z,3.00
2018-12-14T08:24:24.020Z,2.90
2018-12-14T08:26:52.869Z,2.80
2018-12-14T08:29:21.639Z,2.70
2018-12-14T08:31:50.495Z,2.70
2018-12-14T08:34:19.397Z,2.70
2018-12-14T08:36:48.244Z,2.70
2018-12-14T08:39:16.957Z,2.80
2018-12-14T08:41:45.724Z,2.80
2018-12-14T08:44:15.007Z,2.90
2018-12-14T08:46:43.848Z,2.90
2018-12-14T08:49:12.524Z,2.90
2018-12-14T08:51:41.425Z,2.90
2018-12-14T08:54:13.288Z,2.90
2018-12-14T08:56:42.139Z,3.00
2018-12-14T08:59:10.887Z,3.00
2018-12-14T09:01:39.669Z,3.00
2018-12-14T09:04:08.431Z,3.00
2018-12-14T09:06:37.622Z,3.00
2018-12-14T09:09:07.109Z,3.10
2018-12-14T09:11:37.073Z,3.10
2018-12-14T09:14:05.867Z,3.10
2018-12-14T09:16:34.553Z,3.10
2018-12-14T09:19:03.333Z,3.10
2018-12-14T09:21:32.019Z,3.10
2018-12-14T09:24:00.807Z,3.20
2018-12-14T09:26:29.683Z,3.20
2018-12-14T09:28:58.690Z,3.20
2018-12-14T09:31:28.091Z,3.20
2018-12-14T09:33:56.879Z,3.10
2018-12-14T09:36:25.667Z,3.20
2018-12-14T09:38:54.448Z,3.20
2018-12-14T09:41:23.212Z,3.20
2018-12-14T09:43:54.484Z,3.20
2018-12-14T09:46:22.680Z,3.20
2018-12-14T09:48:51.408Z,3.20
2018-12-14T09:51:20.151Z,3.10
2018-12-14T09:53:48.883Z,3.20
2018-12-14T09:56:17.571Z,3.20
2018-12-14T09:58:46.260Z,3.20
2018-12-14T10:01:15.925Z,3.20
2018-12-14T10:03:44.763Z,3.20
2018-12-14T10:06:15.878Z,3.20
2018-12-14T10:08:44.178Z,3.20
2018-12-14T10:11:13.079Z,3.30
2018-12-14T10:13:41.933Z,3.40
2018-12-14T10:16:10.959Z,3.30
2018-12-14T10:18:40.013Z,3.30
2018-12-14T10:21:08.817Z,3.30
2018-12-14T10:23:37.532Z,3.30
2018-12-14T10:26:06.362Z,3.20
2018-12-14T10:28:35.266Z,3.20
2018-12-14T10:31:04.059Z,3.20
2018-12-14T10:33:32.831Z,3.20
2018-12-14T10:36:01.527Z,3.20
2018-12-14T10:38:30.308Z,3.20
2018-12-14T10:40:59.263Z,3.20
2018-12-14T10:43:28.095Z,3.20
2018-12-14T10:45:56.931Z,3.20
2018-12-14T10:48:25.734Z,3.20
2018-12-14T10:50:54.706Z,3.20
2018-12-14T10:53:23.424Z,3.20
2018-12-14T10:55:52.163Z,3.20
2018-12-14T10:58:20.888Z,3.20
2018-12-14T11:00:55.218Z,3.20
2018-12-14T11:03:23.951Z,3.20
2018-12-14T11:05:52.700Z,3.20
2018-12-14T11:08:21.435Z,3.20
2018-12-14T11:10:50.239Z,3.20
2018-12-14T11:13:18.929Z,3.20
2018-12-14T11:15:47.851Z,3.10
2018-12-14T11:18:16.778Z,3.10
2018-12-14T11:20:45.472Z,3.10
2018-12-14T11:23:14.304Z,3.10
2018-12-14T11:25:43.125Z,3.10
2018-12-14T11:28:11.946Z,3.10
2018-12-14T11:30:40.664Z,3.10
2018-12-14T11:33:09.467Z,3.10
2018-12-14T11:35:38.263Z,3.10
2018-12-14T11:38:07.041Z,3.20
2018-12-14T11:40:35.820Z,3.20
2018-12-14T11:43:04.829Z,3.10
2018-12-14T11:45:33.643Z,3.10
2018-12-14T11:48:02.453Z,3.10
2018-12-14T11:50:31.515Z,3.10
2018-12-14T11:53:00.257Z,3.10
2018-12-14T11:55:29.039Z,3.10
2018-12-14T11:57:57.726Z,3.10
2018-12-14T12:00:26.575Z,3.10
2018-12-14T12:02:55.388Z,3.20
2018-12-14T12:05:24.135Z,3.10
2018-12-14T12:07:53.172Z,3.20
2018-12-14T12:10:21.982Z,3.20
2018-12-14T12:12:50.689Z,3.20
2018-12-14T12:15:19.433Z,3.10
2018-12-14T12:17:49.614Z,3.20
2018-12-14T12:20:19.657Z,3.20
2018-12-14T12:22:48.368Z,3.30
2018-12-14T12:25:17.159Z,3.40
2018-12-14T12:27:45.836Z,3.40
2018-12-14T12:30:14.651Z,3.30
2018-12-14T12:32:43.357Z,3.30
2018-12-14T12:35:12.303Z,3.30
2018-12-14T12:37:41.165Z,3.30
2018-12-14T12:40:10.509Z,3.30
2018-12-14T12:42:39.401Z,3.20
2018-12-14T12:45:08.463Z,3.30
2018-12-14T12:47:37.273Z,3.30
2018-12-14T12:50:06.568Z,3.30
2018-12-14T12:52:35.878Z,3.30
2018-12-14T12:55:04.932Z,3.20
2018-12-14T12:57:33.732Z,3.20
2018-12-14T13:00:02.532Z,3.20
2018-12-14T13:02:32.025Z,3.20
2018-12-14T13:05:00.865Z,3.20
2018-12-14T13:07:29.801Z,3.20
2018-12-14T13:09:58.608Z,3.20
2018-12-14T13:12:27.438Z,3.20
2018-12-14T13:14:56.181Z,3.20
2018-12-14T13:17:25.011Z,3.20
2018-12-14T13:19:53.779Z,3.20
2018-12-14T13:22:22.548Z,3.10
2018-12-14T13:24:52.233Z,3.20
2018-12-14T13:27:21.052Z,3.20
2018-12-14T13:29:49.770Z,3.10
2018-12-14T13:32:18.528Z,3.10
2018-12-14T13:34:47.520Z,3.10
2018-12-14T13:37:16.320Z,3.10
2018-12-14T13:39:45.190Z,3.10
2018-12-14T13:42:13.983Z,3.10
2018-12-14T13:44:46.492Z,3.10
2018-12-14T13:47:13.888Z,3.00
2018-12-14T13:49:42.688Z,3.00
2018-12-14T13:52:11.613Z,3.00
2018-12-14T13:54:40.479Z,3.10
2018-12-14T13:57:09.195Z,3.00
2018-12-14T13:59:38.059Z,3.00
2018-12-14T14:02:06.864Z,3.00
2018-12-14T14:04:35.954Z,3.00
2018-12-14T14:07:04.885Z,3.00
2018-12-14T14:09:33.826Z,3.00
2018-12-14T14:12:02.645Z,3.00
2018-12-14T14:14:31.421Z,3.00
2018-12-14T14:17:00.416Z,3.00
2018-12-14T14:19:29.362Z,3.00
2018-12-14T14:21:58.114Z,3.00
2018-12-14T14:24:26.998Z,3.00
2018-12-14T14:26:56.744Z,3.00
2018-12-14T14:29:25.520Z,3.00
2018-12-14T14:31:54.371Z,2.90
2018-12-14T14:34:23.135Z,2.90
2018-12-14T14:36:51.961Z,2.90
2018-12-14T14:39:20.683Z,2.90
2018-12-14T14:41:49.572Z,2.90
2018-12-14T14:44:18.297Z,2.90
2018-12-14T14:46:47.959Z,2.90
2018-12-14T14:49:16.681Z,2.90
2018-12-14T14:51:45.784Z,2.90
2018-12-14T14:54:14.576Z,2.90
2018-12-14T14:56:43.377Z,2.90
2018-12-14T14:59:12.187Z,2.80
2018-12-14T15:01:40.941Z,2.80
2018-12-14T15:04:09.696Z,2.80
2018-12-14T15:06:38.439Z,2.80
2018-12-14T15:09:08.727Z,2.80
2018-12-14T15:11:38.379Z,2.80
2018-12-14T15:14:07.273Z,2.80
2018-12-14T15:16:36.024Z,2.80
2018-12-14T15:19:04.873Z,2.80
2018-12-14T15:21:33.718Z,2.80
2018-12-14T15:24:02.496Z,2.80
2018-12-14T15:26:31.407Z,2.90
2018-12-14T15:29:00.218Z,2.90
2018-12-14T15:31:28.963Z,2.90
2018-12-14T15:33:57.757Z,2.90
2018-12-14T15:36:26.436Z,2.90
2018-12-14T15:38:55.197Z,2.90
2018-12-14T15:41:23.960Z,2.90
2018-12-14T15:43:52.671Z,2.90
2018-12-14T15:46:21.380Z,2.80
2018-12-14T15:48:50.158Z,2.80
2018-12-14T15:51:18.965Z,2.80
2018-12-14T15:53:48.224Z,2.80
2018-12-14T15:56:16.977Z,2.80
2018-12-14T15:58:45.797Z,2.80
2018-12-14T16:01:14.691Z,2.80
2018-12-14T16:03:43.691Z,2.80
2018-12-14T16:06:12.548Z,2.80
2018-12-14T16:08:41.512Z,2.80
2018-12-14T16:11:10.223Z,2.80
2018-12-14T16:13:38.985Z,2.80
2018-12-14T16:16:07.796Z,2.70
2018-12-14T16:18:36.696Z,2.80
2018-12-14T16:21:05.543Z,2.70
2018-12-14T16:23:34.418Z,2.70
2018-12-14T16:26:03.232Z,2.70
2018-12-14T16:28:31.996Z,2.70
2018-12-14T16:31:00.852Z,2.70
2018-12-14T16:33:29.684Z,2.70
2018-12-14T16:35:58.455Z,2.70
2018-12-14T16:38:27.159Z,2.70
2018-12-14T16:40:56.111Z,2.70
2018-12-14T16:43:24.884Z,2.70
2018-12-14T16:45:53.644Z,2.70
2018-12-14T16:48:22.419Z,2.70
2018-12-14T16:50:51.186Z,2.70
2018-12-14T16:53:19.963Z,2.70
2018-12-14T16:55:49.210Z,2.60
2018-12-14T16:58:18.088Z,2.70
2018-12-14T17:00:46.933Z,2.60
2018-12-14T17:03:15.889Z,2.60
2018-12-14T17:05:44.752Z,2.60
2018-12-14T17:08:13.491Z,2.60
2018-12-14T17:10:42.255Z,2.60
2018-12-14T17:13:10.945Z,2.60
2018-12-14T17:15:39.698Z,2.50
2018-12-14T17:18:08.508Z,2.60
2018-12-14T17:20:37.281Z,2.60
2018-12-14T17:23:07.062Z,2.60
2018-12-14T17:25:35.854Z,2.60
2018-12-14T17:28:04.672Z,2.60
2018-12-14T17:30:33.423Z,2.60
2018-12-14T17:33:03.137Z,2.60
2018-12-14T17:35:31.994Z,2.60
2018-12-14T17:38:00.801Z,2.50
2018-12-14T17:40:31.535Z,2.60
2018-12-14T17:43:00.372Z,2.60
2018-12-14T17:45:29.125Z,2.60
2018-12-14T17:47:57.909Z,2.60
2018-12-14T17:50:26.750Z,2.50
2018-12-14T17:53:02.229Z,2.50
2018-12-14T17:55:30.991Z,2.50
2018-12-14T17:57:59.741Z,2.50
2018-12-14T18:00:28.551Z,2.50
2018-12-14T18:02:57.264Z,2.50
2018-12-14T18:05:26.100Z,2.60
2018-12-14T18:07:54.771Z,2.50
2018-12-14T18:10:23.454Z,2.50
2018-12-14T18:12:52.191Z,2.50
2018-12-14T18:15:20.908Z,2.50
2018-12-14T18:17:49.694Z,2.50
2018-12-14T18:20:18.511Z,2.50
2018-12-14T18:22:47.363Z,2.50
2018-12-14T18:25:16.525Z,2.50
2018-12-14T18:27:45.327Z,2.40
2018-12-14T18:30:14.079Z,2.40
2018-12-14T18:32:42.770Z,2.40
2018-12-14T18:35:11.968Z,2.40
2018-12-14T18:37:40.798Z,2.50
2018-12-14T18:40:09.599Z,2.50
2018-12-14T18:42:38.320Z,2.50
2018-12-14T18:45:07.399Z,2.50
2018-12-14T18:47:36.120Z,2.50
2018-12-14T18:50:05.705Z,2.40
2018-12-14T18:55:09.620Z,2.40
2018-12-14T18:57:38.428Z,2.40
2018-12-14T19:00:08.888Z,2.40
2018-12-14T19:02:37.766Z,2.40
2018-12-14T19:05:06.927Z,2.40
2018-12-14T19:07:35.679Z,2.40
2018-12-14T19:10:05.839Z,2.30
2018-12-14T19:12:34.879Z,2.30
2018-12-14T19:15:04.239Z,2.30
2018-12-14T19:17:32.932Z,2.30
2018-12-14T19:20:01.905Z,2.30
2018-12-14T19:22:30.729Z,2.30
2018-12-14T19:24:59.545Z,2.30
2018-12-14T19:27:28.275Z,2.30
2018-12-14T19:29:57.025Z,2.30
2018-12-14T19:32:32.292Z,2.30
2018-12-14T19:35:01.117Z,2.30
2018-12-14T19:37:30.065Z,2.30
2018-12-14T19:39:58.838Z,2.30
2018-12-14T19:42:27.519Z,2.30
2018-12-14T19:44:56.199Z,2.20
2018-12-14T19:47:25.062Z,2.20
2018-12-14T19:49:53.851Z,2.20
2018-12-14T19:52:22.677Z,2.30
2018-12-14T19:54:51.455Z,2.20
2018-12-14T19:57:20.925Z,2.30
2018-12-14T19:59:49.663Z,2.30
2018-12-14T20:02:18.570Z,2.20
2018-12-14T20:04:48.731Z,2.20
2018-12-14T20:07:17.576Z,2.30
2018-12-14T20:09:46.500Z,2.20
2018-12-14T20:12:15.253Z,2.20
2018-12-14T20:14:44.037Z,2.20
2018-12-14T20:17:12.793Z,2.20
2018-12-14T20:19:41.624Z,2.20
2018-12-14T20:22:10.787Z,2.20
2018-12-14T20:24:39.502Z,2.20
2018-12-14T20:27:08.260Z,2.30
2018-12-14T20:29:36.943Z,2.20
2018-12-14T20:32:05.762Z,2.30
2018-12-14T20:34:34.485Z,2.30
2018-12-14T20:37:03.303Z,2.30
2018-12-14T20:39:32.155Z,2.20
2018-12-14T20:42:00.941Z,2.20
2018-12-14T20:44:29.723Z,2.20
2018-12-14T20:46:58.536Z,2.20
2018-12-14T20:49:27.371Z,2.20
2018-12-14T20:51:56.223Z,2.20
2018-12-14T20:54:25.003Z,2.20
2018-12-14T20:56:53.699Z,2.20
2018-12-14T20:59:22.376Z,2.20
2018-12-14T21:01:51.505Z,2.20
2018-12-14T21:04:20.319Z,2.20
2018-12-14T21:06:49.128Z,2.20
2018-12-14T21:09:17.879Z,2.20
2018-12-14T21:11:46.559Z,2.20
2018-12-14T21:14:15.714Z,2.20
2018-12-14T21:16:44.343Z,2.20
2018-12-14T21:19:13.090Z,2.40
2018-12-14T21:21:41.905Z,2.50
2018-12-14T21:24:10.691Z,2.40
2018-12-14T21:26:39.438Z,2.30
2018-12-14T21:29:08.233Z,2.30
2018-12-14T21:31:36.907Z,2.30
2018-12-14T21:34:05.771Z,2.20
2018-12-14T21:36:34.704Z,2.20
2018-12-14T21:39:05.335Z,2.20
2018-12-14T21:41:36.012Z,2.20
2018-12-14T21:44:04.790Z,2.20
2018-12-14T21:46:33.477Z,2.10
2018-12-14T21:49:02.315Z,2.20
2018-12-14T21:51:31.154Z,2.10
2018-12-14T21:53:59.970Z,2.10
2018-12-14T21:56:28.721Z,2.20
2018-12-14T21:58:57.503Z,2.10
2018-12-14T22:01:26.180Z,2.10
2018-12-14T22:03:55.892Z,2.10
2018-12-14T22:06:24.579Z,2.00
2018-12-14T22:08:53.327Z,2.10
2018-12-14T22:11:22.028Z,2.10
2018-12-14T22:13:50.818Z,2.10
2018-12-14T22:16:19.651Z,2.10
2018-12-14T22:18:48.324Z,2.10
2018-12-14T22:21:17.001Z,2.10
2018-12-14T22:23:45.751Z,2.10
2018-12-14T22:26:14.429Z,2.10
2018-12-14T22:28:43.136Z,2.10
2018-12-14T22:31:11.888Z,2.10
2018-12-14T22:33:40.727Z,2.10
2018-12-14T22:36:09.498Z,2.10
2018-12-14T22:38:38.306Z,2.10
2018-12-14T22:41:07.076Z,2.10
2018-12-14T22:43:36.019Z,2.10
2018-12-14T22:46:04.838Z,2.10
2018-12-14T22:48:33.776Z,2.10
2018-12-14T22:51:02.616Z,2.10
2018-12-14T22:53:31.383Z,2.10
2018-12-14T22:56:00.132Z,2.10
2018-12-14T22:58:28.883Z,2.10
2018-12-14T23:00:57.808Z,2.10
2018-12-14T23:03:28.407Z,2.10
2018-12-14T23:05:57.293Z,2.00
2018-12-14T23:08:26.184Z,2.00
2018-12-14T23:10:54.977Z,2.00
2018-12-14T23:13:23.821Z,2.00
2018-12-14T23:15:52.743Z,2.00
2018-12-14T23:18:21.524Z,2.00
2018-12-14T23:20:50.268Z,2.00
2018-12-14T23:23:19.118Z,2.10
2018-12-14T23:25:48.565Z,2.00
2018-12-14T23:28:17.459Z,2.00
2018-12-14T23:30:46.153Z,2.00
2018-12-14T23:33:14.898Z,2.00
2018-12-14T23:35:43.775Z,2.00
2018-12-14T23:38:12.525Z,2.00
2018-12-14T23:40:41.267Z,2.00
2018-12-14T23:43:09.971Z,2.00
2018-12-14T23:45:38.657Z,2.00
2018-12-14T23:48:07.323Z,1.90
2018-12-14T23:50:36.029Z,2.00
2018-12-14T23:53:04.839Z,2.00
2018-12-14T23:55:33.527Z,2.00
2018-12-14T23:58:02.213Z,2.00
